sensor_id;sensor_type;location;lat;lon;timestamp;pressure;altitude;pressure_sealevel;temperature;humidity
20860;BME280;10590;48.154;11.514;2023-04-28T00:01:51;95650.41;;;9.24;70.18
20860;BME280;10590;48.154;11.514;2023-04-28T00:07:13;95652.78;;;9.56;69.41
20860;BME280;10590;48.154;11.514;2023-04-28T00:12:35;95652.66;;;9.62;69.51
20860;BME280;10590;48.154;11.514;2023-04-28T00:17:58;95649.88;;;9.44;70.05
20860;BME280;10590;48.154;11.514;2023-04-28T00:23:20;95634.16;;;9.56;69.55
20860;BME280;10590;48.154;11.514;2023-04-28T00:28:42;95638.09;;;9.68;69.03
20860;BME280;10590;48.154;11.514;2023-04-28T00:34:05;95626.50;;;9.64;69.42
20860;BME280;10590;48.154;11.514;2023-04-28T00:39:27;95626.00;;;9.62;69.80
20860;BME280;10590;48.154;11.514;2023-04-28T00:44:49;95622.47;;;9.44;70.15
20860;BME280;10590;48.154;11.514;2023-04-28T00:50:12;95634.88;;;9.48;70.14
20860;BME280;10590;48.154;11.514;2023-04-28T00:55:34;95624.22;;;9.48;69.92
20860;BME280;10590;48.154;11.514;2023-04-28T01:01:01;95621.69;;;9.43;70.86
20860;BME280;10590;48.154;11.514;2023-04-28T01:06:26;95606.50;;;9.44;70.77
20860;BME280;10590;48.154;11.514;2023-04-28T01:11:48;95614.16;;;9.45;71.03
20860;BME280;10590;48.154;11.514;2023-04-28T01:17:10;95606.19;;;9.45;70.51
20860;BME280;10590;48.154;11.514;2023-04-28T01:22:34;95595.53;;;9.45;70.43
20860;BME280;10590;48.154;11.514;2023-04-28T01:27:57;95590.31;;;9.32;70.88
20860;BME280;10590;48.154;11.514;2023-04-28T01:33:19;95580.63;;;9.36;71.22
20860;BME280;10590;48.154;11.514;2023-04-28T01:38:41;95578.91;;;9.00;72.81
20860;BME280;10590;48.154;11.514;2023-04-28T01:44:04;95579.63;;;8.92;73.47
20860;BME280;10590;48.154;11.514;2023-04-28T01:49:27;95583.31;;;9.05;72.69
20860;BME280;10590;48.154;11.514;2023-04-28T01:54:49;95586.78;;;9.14;73.24
20860;BME280;10590;48.154;11.514;2023-04-28T02:00:13;95578.47;;;9.46;71.51
20860;BME280;10590;48.154;11.514;2023-04-28T02:05:35;95593.59;;;9.29;71.36
20860;BME280;10590;48.154;11.514;2023-04-28T02:10:57;95597.84;;;9.38;71.81
20860;BME280;10590;48.154;11.514;2023-04-28T02:16:22;95595.06;;;9.43;71.28
20860;BME280;10590;48.154;11.514;2023-04-28T02:21:44;95601.34;;;9.47;71.24
20860;BME280;10590;48.154;11.514;2023-04-28T02:27:06;95597.22;;;9.72;71.57
20860;BME280;10590;48.154;11.514;2023-04-28T02:32:30;95585.91;;;9.67;71.28
20860;BME280;10590;48.154;11.514;2023-04-28T02:37:52;95592.00;;;9.58;71.73
20860;BME280;10590;48.154;11.514;2023-04-28T02:43:14;95578.91;;;9.40;73.09
20860;BME280;10590;48.154;11.514;2023-04-28T02:48:38;95569.38;;;9.47;74.10
20860;BME280;10590;48.154;11.514;2023-04-28T02:54:00;95555.63;;;9.54;74.34
20860;BME280;10590;48.154;11.514;2023-04-28T02:59:23;95548.56;;;9.10;76.08
20860;BME280;10590;48.154;11.514;2023-04-28T03:04:48;95547.75;;;9.49;76.26
20860;BME280;10590;48.154;11.514;2023-04-28T03:10:10;95551.00;;;9.37;76.35
20860;BME280;10590;48.154;11.514;2023-04-28T03:15:32;95554.25;;;9.25;76.01
20860;BME280;10590;48.154;11.514;2023-04-28T03:20:55;95551.94;;;9.33;77.14
20860;BME280;10590;48.154;11.514;2023-04-28T03:26:17;95557.41;;;9.27;77.51
20860;BME280;10590;48.154;11.514;2023-04-28T03:31:39;95543.16;;;8.92;78.20
20860;BME280;10590;48.154;11.514;2023-04-28T03:37:02;95523.22;;;8.81;78.82
20860;BME280;10590;48.154;11.514;2023-04-28T03:42:24;95528.31;;;9.00;77.99
20860;BME280;10590;48.154;11.514;2023-04-28T03:47:46;95544.53;;;9.21;78.38
20860;BME280;10590;48.154;11.514;2023-04-28T03:53:10;95542.97;;;9.20;77.80
20860;BME280;10590;48.154;11.514;2023-04-28T03:58:31;95550.00;;;9.16;77.81
20860;BME280;10590;48.154;11.514;2023-04-28T04:03:53;95559.22;;;9.10;79.00
20860;BME280;10590;48.154;11.514;2023-04-28T04:09:17;95556.63;;;9.27;79.53
20860;BME280;10590;48.154;11.514;2023-04-28T04:14:39;95562.44;;;9.38;79.33
20860;BME280;10590;48.154;11.514;2023-04-28T04:20:01;95560.06;;;9.27;80.75
20860;BME280;10590;48.154;11.514;2023-04-28T04:25:24;95548.91;;;9.56;79.15
20860;BME280;10590;48.154;11.514;2023-04-28T04:30:46;95529.56;;;9.42;79.10
20860;BME280;10590;48.154;11.514;2023-04-28T04:36:08;95540.06;;;9.47;79.57
20860;BME280;10590;48.154;11.514;2023-04-28T04:41:31;95537.63;;;9.60;78.71
20860;BME280;10590;48.154;11.514;2023-04-28T04:46:53;95551.41;;;9.62;78.44
20860;BME280;10590;48.154;11.514;2023-04-28T04:52:15;95531.06;;;9.74;78.82
20860;BME280;10590;48.154;11.514;2023-04-28T04:57:39;95535.31;;;9.84;78.49
20860;BME280;10590;48.154;11.514;2023-04-28T05:03:01;95553.94;;;9.75;79.29
20860;BME280;10590;48.154;11.514;2023-04-28T05:08:25;95563.69;;;9.80;78.33
20860;BME280;10590;48.154;11.514;2023-04-28T05:13:49;95567.13;;;9.72;79.80
20860;BME280;10590;48.154;11.514;2023-04-28T05:19:11;95572.44;;;9.32;79.84
20860;BME280;10590;48.154;11.514;2023-04-28T05:24:33;95572.94;;;9.82;78.12
20860;BME280;10590;48.154;11.514;2023-04-28T05:29:56;95571.38;;;9.99;77.68
20860;BME280;10590;48.154;11.514;2023-04-28T05:35:21;95572.66;;;10.18;76.32
20860;BME280;10590;48.154;11.514;2023-04-28T05:40:43;95565.28;;;10.07;75.53
20860;BME280;10590;48.154;11.514;2023-04-28T05:46:06;95558.06;;;10.16;75.72
20860;BME280;10590;48.154;11.514;2023-04-28T05:51:28;95557.59;;;10.05;74.79
20860;BME280;10590;48.154;11.514;2023-04-28T05:56:50;95567.94;;;9.98;75.64
20860;BME280;10590;48.154;11.514;2023-04-28T06:02:13;95571.38;;;9.90;75.99
20860;BME280;10590;48.154;11.514;2023-04-28T06:07:36;95578.41;;;9.77;76.57
20860;BME280;10590;48.154;11.514;2023-04-28T06:12:58;95559.28;;;9.75;77.23
20860;BME280;10590;48.154;11.514;2023-04-28T06:18:21;95557.44;;;9.93;76.51
20860;BME280;10590;48.154;11.514;2023-04-28T06:23:44;95569.34;;;10.04;76.27
20860;BME280;10590;48.154;11.514;2023-04-28T06:29:06;95558.22;;;10.11;76.34
20860;BME280;10590;48.154;11.514;2023-04-28T06:34:29;95547.41;;;10.16;76.67
20860;BME280;10590;48.154;11.514;2023-04-28T06:39:52;95545.69;;;10.29;77.14
20860;BME280;10590;48.154;11.514;2023-04-28T06:45:14;95540.22;;;10.42;77.08
20860;BME280;10590;48.154;11.514;2023-04-28T06:50:37;95529.69;;;11.10;75.51
20860;BME280;10590;48.154;11.514;2023-04-28T06:55:59;95517.44;;;11.76;74.56
20860;BME280;10590;48.154;11.514;2023-04-28T07:01:22;95514.81;;;11.97;72.65
20860;BME280;10590;48.154;11.514;2023-04-28T07:06:45;95517.81;;;11.96;72.26
20860;BME280;10590;48.154;11.514;2023-04-28T07:12:07;95519.50;;;12.00;71.89
20860;BME280;10590;48.154;11.514;2023-04-28T07:17:29;95523.22;;;11.87;72.55
20860;BME280;10590;48.154;11.514;2023-04-28T07:22:52;95508.34;;;11.77;72.44
20860;BME280;10590;48.154;11.514;2023-04-28T07:28:14;95510.72;;;11.70;72.18
20860;BME280;10590;48.154;11.514;2023-04-28T07:33:36;95513.81;;;11.81;72.87
20860;BME280;10590;48.154;11.514;2023-04-28T07:39:00;95512.53;;;11.87;72.94
20860;BME280;10590;48.154;11.514;2023-04-28T07:44:22;95512.44;;;11.96;72.81
20860;BME280;10590;48.154;11.514;2023-04-28T07:49:44;95523.94;;;11.67;73.62
20860;BME280;10590;48.154;11.514;2023-04-28T07:55:08;95530.53;;;11.99;73.14
20860;BME280;10590;48.154;11.514;2023-04-28T08:00:30;95528.78;;;11.73;73.97
20860;BME280;10590;48.154;11.514;2023-04-28T08:05:52;95540.72;;;11.46;76.16
20860;BME280;10590;48.154;11.514;2023-04-28T08:11:16;95533.56;;;11.30;78.03
20860;BME280;10590;48.154;11.514;2023-04-28T08:16:37;95527.53;;;11.41;77.43
20860;BME280;10590;48.154;11.514;2023-04-28T08:22:00;95522.63;;;11.52;78.43
20860;BME280;10590;48.154;11.514;2023-04-28T08:27:26;95510.97;;;11.27;79.83
20860;BME280;10590;48.154;11.514;2023-04-28T08:32:48;95507.41;;;11.06;81.10
20860;BME280;10590;48.154;11.514;2023-04-28T08:38:10;95500.88;;;11.24;81.70
20860;BME280;10590;48.154;11.514;2023-04-28T08:43:36;95493.69;;;11.54;80.29
20860;BME280;10590;48.154;11.514;2023-04-28T08:49:00;95494.69;;;11.41;79.84
20860;BME280;10590;48.154;11.514;2023-04-28T08:54:22;95471.91;;;11.43;80.32
20860;BME280;10590;48.154;11.514;2023-04-28T08:59:48;95490.88;;;11.51;79.36
20860;BME280;10590;48.154;11.514;2023-04-28T09:05:11;95481.03;;;11.42;79.25
20860;BME280;10590;48.154;11.514;2023-04-28T09:10:33;95489.31;;;11.79;78.39
20860;BME280;10590;48.154;11.514;2023-04-28T09:16:00;95482.91;;;11.92;78.00
20860;BME280;10590;48.154;11.514;2023-04-28T09:21:23;95475.63;;;11.51;79.16
20860;BME280;10590;48.154;11.514;2023-04-28T09:26:48;95465.56;;;11.18;80.87
20860;BME280;10590;48.154;11.514;2023-04-28T09:32:16;95472.84;;;11.09;82.03
20860;BME280;10590;48.154;11.514;2023-04-28T09:37:38;95476.53;;;10.88;84.05
20860;BME280;10590;48.154;11.514;2023-04-28T09:43:00;95481.31;;;10.73;85.38
20860;BME280;10590;48.154;11.514;2023-04-28T09:48:28;95459.84;;;10.99;85.15
20860;BME280;10590;48.154;11.514;2023-04-28T09:53:51;95458.03;;;11.21;84.86
20860;BME280;10590;48.154;11.514;2023-04-28T09:59:13;95458.06;;;11.12;85.48
20860;BME280;10590;48.154;11.514;2023-04-28T10:04:37;95462.41;;;11.25;84.95
20860;BME280;10590;48.154;11.514;2023-04-28T10:09:59;95467.41;;;10.97;86.07
20860;BME280;10590;48.154;11.514;2023-04-28T10:15:22;95456.28;;;10.87;86.43
20860;BME280;10590;48.154;11.514;2023-04-28T10:20:47;95457.41;;;10.85;87.27
20860;BME280;10590;48.154;11.514;2023-04-28T10:26:14;95454.34;;;11.04;87.32
20860;BME280;10590;48.154;11.514;2023-04-28T10:31:37;95442.72;;;11.00;87.48
20860;BME280;10590;48.154;11.514;2023-04-28T10:37:01;95450.28;;;10.98;88.02
20860;BME280;10590;48.154;11.514;2023-04-28T10:42:53;95451.19;;;11.02;88.43
20860;BME280;10590;48.154;11.514;2023-04-28T10:48:17;95434.06;;;11.03;88.46
20860;BME280;10590;48.154;11.514;2023-04-28T10:59:46;95442.50;;;11.14;87.60
20860;BME280;10590;48.154;11.514;2023-04-28T11:05:13;95446.22;;;11.30;87.73
20860;BME280;10590;48.154;11.514;2023-04-28T11:16:47;95450.41;;;11.02;87.75
20860;BME280;10590;48.154;11.514;2023-04-28T11:22:14;95458.00;;;10.91;88.87
20860;BME280;10590;48.154;11.514;2023-04-28T11:27:36;95456.22;;;11.04;89.60
20860;BME280;10590;48.154;11.514;2023-04-28T11:32:59;95454.88;;;11.27;88.76
20860;BME280;10590;48.154;11.514;2023-04-28T11:38:21;95457.75;;;11.43;88.14
20860;BME280;10590;48.154;11.514;2023-04-28T11:43:43;95451.38;;;11.35;87.55
20860;BME280;10590;48.154;11.514;2023-04-28T11:49:08;95459.13;;;11.49;87.51
20860;BME280;10590;48.154;11.514;2023-04-28T11:54:30;95452.88;;;11.66;87.81
20860;BME280;10590;48.154;11.514;2023-04-28T11:59:52;95452.56;;;11.46;87.98
20860;BME280;10590;48.154;11.514;2023-04-28T12:05:18;95465.34;;;11.62;88.96
20860;BME280;10590;48.154;11.514;2023-04-28T12:10:41;95452.22;;;11.48;88.65
20860;BME280;10590;48.154;11.514;2023-04-28T12:16:04;95437.75;;;11.70;88.74
20860;BME280;10590;48.154;11.514;2023-04-28T12:21:28;95439.47;;;11.74;88.38
20860;BME280;10590;48.154;11.514;2023-04-28T12:26:50;95450.66;;;12.30;87.41
20860;BME280;10590;48.154;11.514;2023-04-28T12:32:12;95454.88;;;12.64;86.82
20860;BME280;10590;48.154;11.514;2023-04-28T12:37:35;95460.66;;;12.54;87.53
20860;BME280;10590;48.154;11.514;2023-04-28T12:42:58;95464.44;;;12.53;87.44
20860;BME280;10590;48.154;11.514;2023-04-28T12:48:20;95460.78;;;12.58;87.64
20860;BME280;10590;48.154;11.514;2023-04-28T12:53:44;95468.72;;;12.66;86.99
20860;BME280;10590;48.154;11.514;2023-04-28T12:59:06;95466.03;;;12.66;87.31
20860;BME280;10590;48.154;11.514;2023-04-28T13:04:29;95459.69;;;12.83;86.76
20860;BME280;10590;48.154;11.514;2023-04-28T13:09:54;95453.25;;;12.96;86.43
20860;BME280;10590;48.154;11.514;2023-04-28T13:15:16;95459.44;;;13.33;85.41
20860;BME280;10590;48.154;11.514;2023-04-28T13:20:38;95446.94;;;13.25;84.56
20860;BME280;10590;48.154;11.514;2023-04-28T13:26:01;95450.25;;;13.10;85.21
20860;BME280;10590;48.154;11.514;2023-04-28T13:31:24;95445.94;;;13.30;85.44
20860;BME280;10590;48.154;11.514;2023-04-28T13:36:46;95442.47;;;13.42;84.49
20860;BME280;10590;48.154;11.514;2023-04-28T13:42:11;95437.47;;;13.80;83.17
20860;BME280;10590;48.154;11.514;2023-04-28T13:47:33;95431.75;;;13.82;82.52
20860;BME280;10590;48.154;11.514;2023-04-28T13:52:56;95439.50;;;13.71;83.40
20860;BME280;10590;48.154;11.514;2023-04-28T13:58:19;95436.63;;;14.04;81.12
20860;BME280;10590;48.154;11.514;2023-04-28T14:03:41;95436.97;;;14.02;80.52
20860;BME280;10590;48.154;11.514;2023-04-28T14:09:04;95436.34;;;14.49;79.81
20860;BME280;10590;48.154;11.514;2023-04-28T14:14:27;95420.53;;;14.76;78.54
20860;BME280;10590;48.154;11.514;2023-04-28T14:19:49;95423.31;;;14.08;78.95
20860;BME280;10590;48.154;11.514;2023-04-28T14:25:11;95425.69;;;14.25;79.06
20860;BME280;10590;48.154;11.514;2023-04-28T14:30:34;95421.78;;;14.22;79.44
20860;BME280;10590;48.154;11.514;2023-04-28T14:35:56;95407.28;;;14.39;78.90
20860;BME280;10590;48.154;11.514;2023-04-28T14:41:25;95417.69;;;14.13;79.73
20860;BME280;10590;48.154;11.514;2023-04-28T14:46:49;95410.34;;;14.10;79.62
20860;BME280;10590;48.154;11.514;2023-04-28T14:52:11;95403.16;;;14.14;80.84
20860;BME280;10590;48.154;11.514;2023-04-28T14:57:34;95401.34;;;14.18;80.48
20860;BME280;10590;48.154;11.514;2023-04-28T15:02:58;95407.59;;;13.94;81.86
20860;BME280;10590;48.154;11.514;2023-04-28T15:08:20;95409.06;;;13.91;82.95
20860;BME280;10590;48.154;11.514;2023-04-28T15:13:42;95408.19;;;13.75;83.71
20860;BME280;10590;48.154;11.514;2023-04-28T15:19:05;95413.59;;;13.63;84.58
20860;BME280;10590;48.154;11.514;2023-04-28T15:24:28;95416.19;;;13.59;85.22
20860;BME280;10590;48.154;11.514;2023-04-28T15:29:50;95407.47;;;13.50;86.04
20860;BME280;10590;48.154;11.514;2023-04-28T15:35:13;95413.22;;;13.24;86.83
20860;BME280;10590;48.154;11.514;2023-04-28T15:40:37;95409.22;;;13.18;87.51
20860;BME280;10590;48.154;11.514;2023-04-28T15:46:00;95408.97;;;13.11;88.26
20860;BME280;10590;48.154;11.514;2023-04-28T15:51:24;95410.53;;;13.12;89.04
20860;BME280;10590;48.154;11.514;2023-04-28T15:56:46;95406.84;;;13.04;88.90
20860;BME280;10590;48.154;11.514;2023-04-28T16:02:08;95406.72;;;13.13;88.13
20860;BME280;10590;48.154;11.514;2023-04-28T16:07:32;95401.63;;;13.20;88.22
20860;BME280;10590;48.154;11.514;2023-04-28T16:13:00;95395.81;;;13.18;87.81
20860;BME280;10590;48.154;11.514;2023-04-28T16:18:24;95388.91;;;13.17;88.53
20860;BME280;10590;48.154;11.514;2023-04-28T16:23:49;95398.47;;;13.43;88.02
20860;BME280;10590;48.154;11.514;2023-04-28T16:29:11;95395.34;;;13.28;88.87
20860;BME280;10590;48.154;11.514;2023-04-28T16:34:32;95396.69;;;13.22;87.74
20860;BME280;10590;48.154;11.514;2023-04-28T16:39:56;95381.59;;;13.42;87.11
20860;BME280;10590;48.154;11.514;2023-04-28T16:45:18;95371.22;;;13.16;87.98
20860;BME280;10590;48.154;11.514;2023-04-28T16:50:40;95377.06;;;13.18;88.59
20860;BME280;10590;48.154;11.514;2023-04-28T16:56:03;95385.19;;;13.10;89.13
20860;BME280;10590;48.154;11.514;2023-04-28T17:01:25;95372.47;;;13.19;88.46
20860;BME280;10590;48.154;11.514;2023-04-28T17:06:47;95392.22;;;13.26;88.39
20860;BME280;10590;48.154;11.514;2023-04-28T17:12:11;95375.47;;;12.93;89.63
20860;BME280;10590;48.154;11.514;2023-04-28T17:17:32;95337.09;;;12.76;91.30
20860;BME280;10590;48.154;11.514;2023-04-28T17:22:54;95336.19;;;12.72;91.78
20860;BME280;10590;48.154;11.514;2023-04-28T17:28:18;95314.78;;;12.85;91.28
20860;BME280;10590;48.154;11.514;2023-04-28T17:33:40;95349.56;;;12.97;90.88
20860;BME280;10590;48.154;11.514;2023-04-28T17:39:02;95359.28;;;12.89;91.67
20860;BME280;10590;48.154;11.514;2023-04-28T17:44:26;95375.03;;;12.91;91.28
20860;BME280;10590;48.154;11.514;2023-04-28T17:49:47;95362.97;;;12.85;89.75
20860;BME280;10590;48.154;11.514;2023-04-28T17:55:10;95362.53;;;12.58;89.68
20860;BME280;10590;48.154;11.514;2023-04-28T18:00:34;95366.53;;;12.52;89.16
20860;BME280;10590;48.154;11.514;2023-04-28T18:05:57;95378.44;;;12.42;89.95
20860;BME280;10590;48.154;11.514;2023-04-28T18:11:19;95386.38;;;12.39;89.97
20860;BME280;10590;48.154;11.514;2023-04-28T18:16:43;95396.47;;;12.21;89.57
20860;BME280;10590;48.154;11.514;2023-04-28T18:22:05;95410.38;;;12.15;90.16
20860;BME280;10590;48.154;11.514;2023-04-28T18:27:28;95413.50;;;12.17;90.87
20860;BME280;10590;48.154;11.514;2023-04-28T18:32:52;95419.97;;;12.16;91.28
20860;BME280;10590;48.154;11.514;2023-04-28T18:38:14;95443.84;;;12.21;90.97
20860;BME280;10590;48.154;11.514;2023-04-28T18:43:36;95474.81;;;12.22;91.21
20860;BME280;10590;48.154;11.514;2023-04-28T18:49:00;95494.59;;;11.88;92.75
20860;BME280;10590;48.154;11.514;2023-04-28T18:54:25;95510.13;;;11.65;92.67
20860;BME280;10590;48.154;11.514;2023-04-28T18:59:48;95465.56;;;11.27;92.55
20860;BME280;10590;48.154;11.514;2023-04-28T19:05:11;95523.59;;;11.47;92.27
20860;BME280;10590;48.154;11.514;2023-04-28T19:10:34;95530.91;;;11.21;92.21
20860;BME280;10590;48.154;11.514;2023-04-28T19:15:57;95532.94;;;11.33;92.21
20860;BME280;10590;48.154;11.514;2023-04-28T19:21:20;95515.72;;;11.51;91.70
20860;BME280;10590;48.154;11.514;2023-04-28T19:26:45;95508.38;;;11.39;90.86
20860;BME280;10590;48.154;11.514;2023-04-28T19:32:07;95525.69;;;11.63;90.82
20860;BME280;10590;48.154;11.514;2023-04-28T19:37:31;95540.94;;;11.62;90.34
20860;BME280;10590;48.154;11.514;2023-04-28T19:42:53;95566.22;;;11.35;91.69
20860;BME280;10590;48.154;11.514;2023-04-28T19:48:15;95555.69;;;10.92;93.44
20860;BME280;10590;48.154;11.514;2023-04-28T19:53:39;95531.63;;;11.01;92.78
20860;BME280;10590;48.154;11.514;2023-04-28T19:59:02;95530.25;;;11.33;92.12
20860;BME280;10590;48.154;11.514;2023-04-28T20:04:24;95521.31;;;11.29;91.86
20860;BME280;10590;48.154;11.514;2023-04-28T20:09:49;95518.34;;;11.22;91.98
20860;BME280;10590;48.154;11.514;2023-04-28T20:15:12;95502.97;;;11.18;91.91
20860;BME280;10590;48.154;11.514;2023-04-28T20:20:36;95501.91;;;11.11;92.74
20860;BME280;10590;48.154;11.514;2023-04-28T20:25:59;95501.84;;;11.20;92.85
20860;BME280;10590;48.154;11.514;2023-04-28T20:31:23;95502.47;;;11.25;92.31
20860;BME280;10590;48.154;11.514;2023-04-28T20:36:45;95492.13;;;11.15;92.03
20860;BME280;10590;48.154;11.514;2023-04-28T20:42:11;95485.22;;;11.14;92.05
20860;BME280;10590;48.154;11.514;2023-04-28T20:47:33;95482.91;;;11.04;92.72
20860;BME280;10590;48.154;11.514;2023-04-28T20:52:57;95472.50;;;10.81;92.62
20860;BME280;10590;48.154;11.514;2023-04-28T20:58:33;95492.75;;;10.82;92.42
20860;BME280;10590;48.154;11.514;2023-04-28T21:03:56;95496.38;;;10.78;92.84
20860;BME280;10590;48.154;11.514;2023-04-28T21:09:21;95503.13;;;10.75;92.48
20860;BME280;10590;48.154;11.514;2023-04-28T21:14:54;95500.00;;;10.73;92.44
20860;BME280;10590;48.154;11.514;2023-04-28T21:20:20;95505.50;;;10.68;92.06
20860;BME280;10590;48.154;11.514;2023-04-28T21:25:43;95500.50;;;10.58;92.63
20860;BME280;10590;48.154;11.514;2023-04-28T21:31:06;95491.88;;;10.61;92.69
20860;BME280;10590;48.154;11.514;2023-04-28T21:36:29;95494.84;;;10.60;92.43
20860;BME280;10590;48.154;11.514;2023-04-28T21:41:50;95486.72;;;10.47;92.18
20860;BME280;10590;48.154;11.514;2023-04-28T21:47:17;95482.94;;;10.40;92.66
20860;BME280;10590;48.154;11.514;2023-04-28T21:52:39;95487.47;;;10.39;92.16
20860;BME280;10590;48.154;11.514;2023-04-28T21:58:01;95500.22;;;10.34;92.02
20860;BME280;10590;48.154;11.514;2023-04-28T22:03:25;95508.34;;;10.37;91.97
20860;BME280;10590;48.154;11.514;2023-04-28T22:08:50;95509.16;;;10.29;92.37
20860;BME280;10590;48.154;11.514;2023-04-28T22:14:11;95507.75;;;10.32;92.08
20860;BME280;10590;48.154;11.514;2023-04-28T22:19:35;95495.66;;;10.17;92.49
20860;BME280;10590;48.154;11.514;2023-04-28T22:24:57;95495.19;;;10.24;92.45
20860;BME280;10590;48.154;11.514;2023-04-28T22:30:19;95478.25;;;10.28;92.07
20860;BME280;10590;48.154;11.514;2023-04-28T22:35:43;95477.00;;;10.26;92.16
20860;BME280;10590;48.154;11.514;2023-04-28T22:41:04;95476.19;;;10.16;91.69
20860;BME280;10590;48.154;11.514;2023-04-28T22:46:26;95472.28;;;10.14;91.61
20860;BME280;10590;48.154;11.514;2023-04-28T22:51:50;95458.94;;;10.14;92.01
20860;BME280;10590;48.154;11.514;2023-04-28T22:57:12;95450.97;;;10.05;92.25
20860;BME280;10590;48.154;11.514;2023-04-28T23:02:34;95447.34;;;10.10;91.73
20860;BME280;10590;48.154;11.514;2023-04-28T23:07:58;95444.22;;;10.08;91.78
20860;BME280;10590;48.154;11.514;2023-04-28T23:13:20;95434.97;;;10.05;91.66
20860;BME280;10590;48.154;11.514;2023-04-28T23:18:42;95444.84;;;10.05;91.59
20860;BME280;10590;48.154;11.514;2023-04-28T23:24:06;95421.97;;;9.95;91.66
20860;BME280;10590;48.154;11.514;2023-04-28T23:29:30;95433.56;;;9.90;91.90
20860;BME280;10590;48.154;11.514;2023-04-28T23:34:52;95427.63;;;9.85;91.92
20860;BME280;10590;48.154;11.514;2023-04-28T23:40:15;95443.44;;;9.90;91.51
20860;BME280;10590;48.154;11.514;2023-04-28T23:45:37;95435.59;;;9.94;91.17
20860;BME280;10590;48.154;11.514;2023-04-28T23:50:59;95421.81;;;9.83;91.58
20860;BME280;10590;48.154;11.514;2023-04-28T23:56:22;95402.69;;;9.81;91.63
